sensor_id;sensor_type;location;lat;lon;timestamp;temperature;humidity
2363;DHT22;64265;51.664;7.626;2024-01-11T00:02:00;21.20;63.10
2363;DHT22;64265;51.664;7.626;2024-01-11T00:04:38;21.20;63.10
2363;DHT22;64265;51.664;7.626;2024-01-11T00:07:23;21.30;63.30
2363;DHT22;64265;51.664;7.626;2024-01-11T00:10:07;21.20;63.20
2363;DHT22;64265;51.664;7.626;2024-01-11T00:12:53;21.30;63.40
2363;DHT22;64265;51.664;7.626;2024-01-11T00:15:29;21.20;63.30
2363;DHT22;64265;51.664;7.626;2024-01-11T00:18:04;21.20;63.40
2363;DHT22;64265;51.664;7.626;2024-01-11T00:20:49;21.20;63.40
2363;DHT22;64265;51.664;7.626;2024-01-11T00:23:16;21.20;63.40
2363;DHT22;64265;51.664;7.626;2024-01-11T00:26:04;21.10;63.20
2363;DHT22;64265;51.664;7.626;2024-01-11T00:28:55;21.10;63.20
2363;DHT22;64265;51.664;7.626;2024-01-11T00:31:28;21.10;63.10
2363;DHT22;64265;51.664;7.626;2024-01-11T00:34:02;21.10;63.20
2363;DHT22;64265;51.664;7.626;2024-01-11T00:36:38;21.10;63.30
2363;DHT22;64265;51.664;7.626;2024-01-11T00:39:13;21.10;63.10
2363;DHT22;64265;51.664;7.626;2024-01-11T00:41:42;21.10;63.00
2363;DHT22;64265;51.664;7.626;2024-01-11T00:44:23;21.10;63.10
2363;DHT22;64265;51.664;7.626;2024-01-11T00:46:56;21.00;63.00
2363;DHT22;64265;51.664;7.626;2024-01-11T00:49:32;21.10;63.10
2363;DHT22;64265;51.664;7.626;2024-01-11T00:52:06;21.10;63.10
2363;DHT22;64265;51.664;7.626;2024-01-11T00:54:38;21.00;62.90
2363;DHT22;64265;51.664;7.626;2024-01-11T00:57:07;21.00;63.00
2363;DHT22;64265;51.664;7.626;2024-01-11T00:59:40;21.00;62.90
2363;DHT22;64265;51.664;7.626;2024-01-11T01:02:09;21.00;62.90
2363;DHT22;64265;51.664;7.626;2024-01-11T01:04:58;21.00;62.90
2363;DHT22;64265;51.664;7.626;2024-01-11T01:07:51;21.00;63.70
2363;DHT22;64265;51.664;7.626;2024-01-11T01:10:27;21.00;62.90
2363;DHT22;64265;51.664;7.626;2024-01-11T01:13:11;21.00;63.00
2363;DHT22;64265;51.664;7.626;2024-01-11T01:16:00;21.00;63.00
2363;DHT22;64265;51.664;7.626;2024-01-11T01:18:37;21.00;62.90
2363;DHT22;64265;51.664;7.626;2024-01-11T01:21:25;20.90;62.90
2363;DHT22;64265;51.664;7.626;2024-01-11T01:24:00;20.90;62.90
2363;DHT22;64265;51.664;7.626;2024-01-11T01:26:31;20.90;62.90
2363;DHT22;64265;51.664;7.626;2024-01-11T01:29:13;20.90;62.80
2363;DHT22;64265;51.664;7.626;2024-01-11T01:31:49;20.90;62.90
2363;DHT22;64265;51.664;7.626;2024-01-11T01:34:32;20.90;62.90
2363;DHT22;64265;51.664;7.626;2024-01-11T01:37:04;20.90;62.90
2363;DHT22;64265;51.664;7.626;2024-01-11T01:39:42;20.90;62.90
2363;DHT22;64265;51.664;7.626;2024-01-11T01:42:13;20.90;62.90
2363;DHT22;64265;51.664;7.626;2024-01-11T01:44:43;20.90;62.90
2363;DHT22;64265;51.664;7.626;2024-01-11T01:47:17;20.90;62.90
2363;DHT22;64265;51.664;7.626;2024-01-11T01:49:56;20.90;62.90
2363;DHT22;64265;51.664;7.626;2024-01-11T01:52:43;20.90;62.90
2363;DHT22;64265;51.664;7.626;2024-01-11T01:55:32;20.90;63.00
2363;DHT22;64265;51.664;7.626;2024-01-11T01:58:11;20.80;62.90
2363;DHT22;64265;51.664;7.626;2024-01-11T02:00:46;20.80;62.90
2363;DHT22;64265;51.664;7.626;2024-01-11T02:03:27;20.80;62.90
2363;DHT22;64265;51.664;7.626;2024-01-11T02:08:51;20.80;62.90
2363;DHT22;64265;51.664;7.626;2024-01-11T02:11:28;20.80;62.90
2363;DHT22;64265;51.664;7.626;2024-01-11T02:13:59;20.80;62.90
2363;DHT22;64265;51.664;7.626;2024-01-11T02:16:38;20.80;62.90
2363;DHT22;64265;51.664;7.626;2024-01-11T02:19:09;20.80;62.90
2363;DHT22;64265;51.664;7.626;2024-01-11T02:24:21;20.80;62.90
2363;DHT22;64265;51.664;7.626;2024-01-11T02:27:01;20.80;62.90
2363;DHT22;64265;51.664;7.626;2024-01-11T02:29:29;20.80;62.90
2363;DHT22;64265;51.664;7.626;2024-01-11T02:31:56;20.80;63.00
2363;DHT22;64265;51.664;7.626;2024-01-11T02:34:23;20.80;62.90
2363;DHT22;64265;51.664;7.626;2024-01-11T02:36:50;20.80;62.90
2363;DHT22;64265;51.664;7.626;2024-01-11T02:39:20;20.80;62.90
2363;DHT22;64265;51.664;7.626;2024-01-11T02:41:50;20.70;62.80
2363;DHT22;64265;51.664;7.626;2024-01-11T02:44:17;20.70;62.80
2363;DHT22;64265;51.664;7.626;2024-01-11T02:46:44;20.70;62.80
2363;DHT22;64265;51.664;7.626;2024-01-11T02:49:10;20.70;62.80
2363;DHT22;64265;51.664;7.626;2024-01-11T02:51:40;20.70;62.90
2363;DHT22;64265;51.664;7.626;2024-01-11T02:54:07;20.70;63.70
2363;DHT22;64265;51.664;7.626;2024-01-11T02:56:35;20.70;62.80
2363;DHT22;64265;51.664;7.626;2024-01-11T02:59:02;20.70;62.80
2363;DHT22;64265;51.664;7.626;2024-01-11T03:01:28;20.70;62.80
2363;DHT22;64265;51.664;7.626;2024-01-11T03:03:56;20.70;62.80
2363;DHT22;64265;51.664;7.626;2024-01-11T03:06:23;20.70;62.80
2363;DHT22;64265;51.664;7.626;2024-01-11T03:08:50;20.70;62.80
2363;DHT22;64265;51.664;7.626;2024-01-11T03:11:16;20.70;62.90
2363;DHT22;64265;51.664;7.626;2024-01-11T03:13:45;20.70;62.80
2363;DHT22;64265;51.664;7.626;2024-01-11T03:16:11;20.70;62.80
2363;DHT22;64265;51.664;7.626;2024-01-11T03:18:38;20.70;62.80
2363;DHT22;64265;51.664;7.626;2024-01-11T03:21:05;20.70;62.80
2363;DHT22;64265;51.664;7.626;2024-01-11T03:23:32;20.70;62.80
2363;DHT22;64265;51.664;7.626;2024-01-11T03:25:58;20.70;62.80
2363;DHT22;64265;51.664;7.626;2024-01-11T03:28:26;20.60;62.70
2363;DHT22;64265;51.664;7.626;2024-01-11T03:30:54;20.60;62.80
2363;DHT22;64265;51.664;7.626;2024-01-11T03:33:21;20.60;62.70
2363;DHT22;64265;51.664;7.626;2024-01-11T03:35:47;20.60;62.70
2363;DHT22;64265;51.664;7.626;2024-01-11T03:38:14;20.60;62.70
2363;DHT22;64265;51.664;7.626;2024-01-11T03:40:41;20.60;62.70
2363;DHT22;64265;51.664;7.626;2024-01-11T03:43:07;20.60;62.70
2363;DHT22;64265;51.664;7.626;2024-01-11T03:45:34;20.60;62.80
2363;DHT22;64265;51.664;7.626;2024-01-11T03:48:03;20.60;62.80
2363;DHT22;64265;51.664;7.626;2024-01-11T03:50:29;20.60;62.80
2363;DHT22;64265;51.664;7.626;2024-01-11T03:52:57;20.60;62.80
2363;DHT22;64265;51.664;7.626;2024-01-11T03:55:24;20.60;62.80
2363;DHT22;64265;51.664;7.626;2024-01-11T03:57:51;20.60;62.80
2363;DHT22;64265;51.664;7.626;2024-01-11T04:00:18;20.60;62.80
2363;DHT22;64265;51.664;7.626;2024-01-11T04:02:45;20.60;62.80
2363;DHT22;64265;51.664;7.626;2024-01-11T04:05:13;20.60;62.80
2363;DHT22;64265;51.664;7.626;2024-01-11T04:07:40;20.60;62.80
2363;DHT22;64265;51.664;7.626;2024-01-11T04:10:08;20.60;62.80
2363;DHT22;64265;51.664;7.626;2024-01-11T04:12:35;20.60;62.80
2363;DHT22;64265;51.664;7.626;2024-01-11T04:15:03;20.60;62.80
2363;DHT22;64265;51.664;7.626;2024-01-11T04:17:30;20.60;62.80
2363;DHT22;64265;51.664;7.626;2024-01-11T04:19:56;20.60;62.80
2363;DHT22;64265;51.664;7.626;2024-01-11T04:22:24;20.60;62.90
2363;DHT22;64265;51.664;7.626;2024-01-11T04:24:51;20.60;62.80
2363;DHT22;64265;51.664;7.626;2024-01-11T04:27:18;20.60;62.80
2363;DHT22;64265;51.664;7.626;2024-01-11T04:29:44;20.60;62.80
2363;DHT22;64265;51.664;7.626;2024-01-11T04:32:11;20.50;62.70
2363;DHT22;64265;51.664;7.626;2024-01-11T04:34:38;20.50;62.80
2363;DHT22;64265;51.664;7.626;2024-01-11T04:37:05;20.50;62.80
2363;DHT22;64265;51.664;7.626;2024-01-11T04:39:33;20.50;62.70
2363;DHT22;64265;51.664;7.626;2024-01-11T04:42:00;20.50;62.70
2363;DHT22;64265;51.664;7.626;2024-01-11T04:44:27;20.50;62.70
2363;DHT22;64265;51.664;7.626;2024-01-11T04:46:54;20.50;62.70
2363;DHT22;64265;51.664;7.626;2024-01-11T04:49:21;20.60;62.90
2363;DHT22;64265;51.664;7.626;2024-01-11T04:51:47;20.50;62.70
2363;DHT22;64265;51.664;7.626;2024-01-11T04:54:14;20.50;62.80
2363;DHT22;64265;51.664;7.626;2024-01-11T04:56:42;20.50;62.80
2363;DHT22;64265;51.664;7.626;2024-01-11T04:59:10;20.50;63.50
2363;DHT22;64265;51.664;7.626;2024-01-11T05:01:36;20.50;62.80
2363;DHT22;64265;51.664;7.626;2024-01-11T05:04:03;20.50;62.80
2363;DHT22;64265;51.664;7.626;2024-01-11T05:06:30;20.50;62.80
2363;DHT22;64265;51.664;7.626;2024-01-11T05:08:57;20.50;62.90
2363;DHT22;64265;51.664;7.626;2024-01-11T05:11:24;20.50;62.80
2363;DHT22;64265;51.664;7.626;2024-01-11T05:13:53;20.50;62.80
2363;DHT22;64265;51.664;7.626;2024-01-11T05:16:20;20.50;62.80
2363;DHT22;64265;51.664;7.626;2024-01-11T05:18:48;20.50;62.80
2363;DHT22;64265;51.664;7.626;2024-01-11T05:21:15;20.50;62.90
2363;DHT22;64265;51.664;7.626;2024-01-11T05:23:41;20.50;62.80
2363;DHT22;64265;51.664;7.626;2024-01-11T05:26:08;20.50;62.80
2363;DHT22;64265;51.664;7.626;2024-01-11T05:28:35;20.50;62.80
2363;DHT22;64265;51.664;7.626;2024-01-11T05:31:06;20.50;62.90
2363;DHT22;64265;51.664;7.626;2024-01-11T05:33:34;20.50;62.80
2363;DHT22;64265;51.664;7.626;2024-01-11T05:36:00;20.50;62.80
2363;DHT22;64265;51.664;7.626;2024-01-11T05:38:28;20.50;62.80
2363;DHT22;64265;51.664;7.626;2024-01-11T05:40:55;20.50;62.90
2363;DHT22;64265;51.664;7.626;2024-01-11T05:43:22;20.50;62.80
2363;DHT22;64265;51.664;7.626;2024-01-11T05:45:49;20.50;62.80
2363;DHT22;64265;51.664;7.626;2024-01-11T05:48:17;20.50;62.80
2363;DHT22;64265;51.664;7.626;2024-01-11T05:50:44;20.50;62.90
2363;DHT22;64265;51.664;7.626;2024-01-11T05:53:11;20.50;62.80
2363;DHT22;64265;51.664;7.626;2024-01-11T05:55:38;20.40;62.70
2363;DHT22;64265;51.664;7.626;2024-01-11T05:58:05;20.50;62.80
2363;DHT22;64265;51.664;7.626;2024-01-11T06:00:32;20.50;62.80
2363;DHT22;64265;51.664;7.626;2024-01-11T06:02:59;20.40;62.70
2363;DHT22;64265;51.664;7.626;2024-01-11T06:05:27;20.40;62.70
2363;DHT22;64265;51.664;7.626;2024-01-11T06:07:53;20.40;62.70
2363;DHT22;64265;51.664;7.626;2024-01-11T06:10:20;20.40;62.70
2363;DHT22;64265;51.664;7.626;2024-01-11T06:12:47;20.40;62.80
2363;DHT22;64265;51.664;7.626;2024-01-11T06:15:13;20.40;62.80
2363;DHT22;64265;51.664;7.626;2024-01-11T06:17:40;20.40;62.80
2363;DHT22;64265;51.664;7.626;2024-01-11T06:20:08;20.40;62.80
2363;DHT22;64265;51.664;7.626;2024-01-11T06:22:36;20.40;62.80
2363;DHT22;64265;51.664;7.626;2024-01-11T06:25:04;20.40;62.70
2363;DHT22;64265;51.664;7.626;2024-01-11T06:27:30;20.40;62.80
2363;DHT22;64265;51.664;7.626;2024-01-11T06:29:57;20.40;62.70
2363;DHT22;64265;51.664;7.626;2024-01-11T06:32:24;20.50;62.80
2363;DHT22;64265;51.664;7.626;2024-01-11T06:34:51;20.40;62.70
2363;DHT22;64265;51.664;7.626;2024-01-11T06:37:17;20.40;62.70
2363;DHT22;64265;51.664;7.626;2024-01-11T06:39:46;20.40;62.70
2363;DHT22;64265;51.664;7.626;2024-01-11T06:42:13;20.40;62.70
2363;DHT22;64265;51.664;7.626;2024-01-11T06:44:40;20.40;62.80
2363;DHT22;64265;51.664;7.626;2024-01-11T06:47:07;20.40;62.80
2363;DHT22;64265;51.664;7.626;2024-01-11T06:49:33;20.40;62.80
2363;DHT22;64265;51.664;7.626;2024-01-11T06:52:00;20.50;63.60
2363;DHT22;64265;51.664;7.626;2024-01-11T06:54:28;20.40;62.80
2363;DHT22;64265;51.664;7.626;2024-01-11T06:56:57;20.40;62.70
2363;DHT22;64265;51.664;7.626;2024-01-11T06:59:23;20.40;62.60
2363;DHT22;64265;51.664;7.626;2024-01-11T07:01:50;20.40;62.60
2363;DHT22;64265;51.664;7.626;2024-01-11T07:04:17;20.40;62.50
2363;DHT22;64265;51.664;7.626;2024-01-11T07:06:44;20.40;62.50
2363;DHT22;64265;51.664;7.626;2024-01-11T07:09:10;20.40;62.50
2363;DHT22;64265;51.664;7.626;2024-01-11T07:11:37;20.40;62.50
2363;DHT22;64265;51.664;7.626;2024-01-11T07:14:05;20.40;62.50
2363;DHT22;64265;51.664;7.626;2024-01-11T07:16:32;20.40;62.50
2363;DHT22;64265;51.664;7.626;2024-01-11T07:18:59;20.30;63.10
2363;DHT22;64265;51.664;7.626;2024-01-11T07:21:26;20.30;62.40
2363;DHT22;64265;51.664;7.626;2024-01-11T07:23:56;20.30;62.40
2363;DHT22;64265;51.664;7.626;2024-01-11T07:26:23;20.30;62.40
2363;DHT22;64265;51.664;7.626;2024-01-11T07:28:50;20.30;62.40
2363;DHT22;64265;51.664;7.626;2024-01-11T07:31:18;20.30;62.50
2363;DHT22;64265;51.664;7.626;2024-01-11T07:33:45;20.20;62.50
2363;DHT22;64265;51.664;7.626;2024-01-11T07:36:12;20.30;62.60
2363;DHT22;64265;51.664;7.626;2024-01-11T07:38:41;20.30;62.70
2363;DHT22;64265;51.664;7.626;2024-01-11T07:41:08;20.30;62.80
2363;DHT22;64265;51.664;7.626;2024-01-11T07:43:34;20.30;62.90
2363;DHT22;64265;51.664;7.626;2024-01-11T07:46:01;20.20;62.90
2363;DHT22;64265;51.664;7.626;2024-01-11T07:48:30;20.30;63.10
2363;DHT22;64265;51.664;7.626;2024-01-11T07:50:57;20.30;63.10
2363;DHT22;64265;51.664;7.626;2024-01-11T07:53:24;20.30;63.10
2363;DHT22;64265;51.664;7.626;2024-01-11T07:55:51;20.30;63.10
2363;DHT22;64265;51.664;7.626;2024-01-11T07:58:18;20.30;63.10
2363;DHT22;64265;51.664;7.626;2024-01-11T08:00:46;20.30;63.10
2363;DHT22;64265;51.664;7.626;2024-01-11T08:03:13;20.30;63.10
2363;DHT22;64265;51.664;7.626;2024-01-11T08:05:42;20.40;63.10
2363;DHT22;64265;51.664;7.626;2024-01-11T08:08:09;20.40;63.10
2363;DHT22;64265;51.664;7.626;2024-01-11T08:10:38;20.40;63.10
2363;DHT22;64265;51.664;7.626;2024-01-11T08:13:05;20.40;63.00
2363;DHT22;64265;51.664;7.626;2024-01-11T08:15:32;20.40;62.90
2363;DHT22;64265;51.664;7.626;2024-01-11T08:17:59;20.40;62.90
2363;DHT22;64265;51.664;7.626;2024-01-11T08:20:26;20.40;62.80
2363;DHT22;64265;51.664;7.626;2024-01-11T08:22:54;20.40;62.80
2363;DHT22;64265;51.664;7.626;2024-01-11T08:25:21;20.40;62.80
2363;DHT22;64265;51.664;7.626;2024-01-11T08:27:49;20.40;62.80
2363;DHT22;64265;51.664;7.626;2024-01-11T08:30:15;20.40;62.80
2363;DHT22;64265;51.664;7.626;2024-01-11T08:32:42;20.40;62.70
2363;DHT22;64265;51.664;7.626;2024-01-11T08:35:09;20.40;62.80
2363;DHT22;64265;51.664;7.626;2024-01-11T08:37:37;20.40;62.70
2363;DHT22;64265;51.664;7.626;2024-01-11T08:40:07;20.40;62.70
2363;DHT22;64265;51.664;7.626;2024-01-11T08:42:34;20.30;62.60
2363;DHT22;64265;51.664;7.626;2024-01-11T08:45:01;20.30;62.60
2363;DHT22;64265;51.664;7.626;2024-01-11T08:47:32;20.30;62.60
2363;DHT22;64265;51.664;7.626;2024-01-11T08:49:59;20.30;62.60
2363;DHT22;64265;51.664;7.626;2024-01-11T08:52:26;20.30;62.60
2363;DHT22;64265;51.664;7.626;2024-01-11T08:54:52;20.40;63.30
2363;DHT22;64265;51.664;7.626;2024-01-11T08:57:20;20.30;62.60
2363;DHT22;64265;51.664;7.626;2024-01-11T08:59:47;20.40;62.80
2363;DHT22;64265;51.664;7.626;2024-01-11T09:02:14;20.40;62.80
2363;DHT22;64265;51.664;7.626;2024-01-11T09:04:41;20.40;62.80
2363;DHT22;64265;51.664;7.626;2024-01-11T09:07:07;20.40;62.90
2363;DHT22;64265;51.664;7.626;2024-01-11T09:09:34;20.40;62.90
2363;DHT22;64265;51.664;7.626;2024-01-11T09:12:01;20.40;63.00
2363;DHT22;64265;51.664;7.626;2024-01-11T09:14:31;20.40;62.90
2363;DHT22;64265;51.664;7.626;2024-01-11T09:16:58;20.40;62.90
2363;DHT22;64265;51.664;7.626;2024-01-11T09:19:24;20.40;62.90
2363;DHT22;64265;51.664;7.626;2024-01-11T09:21:51;20.40;62.80
2363;DHT22;64265;51.664;7.626;2024-01-11T09:24:18;20.40;62.70
2363;DHT22;64265;51.664;7.626;2024-01-11T09:26:44;20.40;62.60
2363;DHT22;64265;51.664;7.626;2024-01-11T09:29:11;20.40;62.80
2363;DHT22;64265;51.664;7.626;2024-01-11T09:31:40;20.40;62.60
2363;DHT22;64265;51.664;7.626;2024-01-11T09:34:07;20.40;63.00
2363;DHT22;64265;51.664;7.626;2024-01-11T09:36:34;20.40;62.90
2363;DHT22;64265;51.664;7.626;2024-01-11T09:39:04;20.40;63.10
2363;DHT22;64265;51.664;7.626;2024-01-11T09:41:31;20.40;63.40
2363;DHT22;64265;51.664;7.626;2024-01-11T09:44:00;20.40;63.60
2363;DHT22;64265;51.664;7.626;2024-01-11T09:46:31;20.40;64.00
2363;DHT22;64265;51.664;7.626;2024-01-11T09:49:00;20.40;64.00
2363;DHT22;64265;51.664;7.626;2024-01-11T09:51:29;20.50;64.20
2363;DHT22;64265;51.664;7.626;2024-01-11T09:53:58;20.50;64.20
2363;DHT22;64265;51.664;7.626;2024-01-11T09:56:26;20.50;64.30
2363;DHT22;64265;51.664;7.626;2024-01-11T09:58:54;20.50;64.30
2363;DHT22;64265;51.664;7.626;2024-01-11T10:01:20;20.50;64.20
2363;DHT22;64265;51.664;7.626;2024-01-11T10:03:48;20.50;64.20
2363;DHT22;64265;51.664;7.626;2024-01-11T10:06:17;20.50;64.10
2363;DHT22;64265;51.664;7.626;2024-01-11T10:08:45;20.40;64.10
2363;DHT22;64265;51.664;7.626;2024-01-11T10:11:11;20.50;64.00
2363;DHT22;64265;51.664;7.626;2024-01-11T10:13:41;20.50;64.10
2363;DHT22;64265;51.664;7.626;2024-01-11T10:16:09;20.50;64.00
2363;DHT22;64265;51.664;7.626;2024-01-11T10:18:39;20.50;64.10
2363;DHT22;64265;51.664;7.626;2024-01-11T10:21:05;20.50;64.30
2363;DHT22;64265;51.664;7.626;2024-01-11T10:23:34;20.60;64.40
2363;DHT22;64265;51.664;7.626;2024-01-11T10:26:02;20.60;64.60
2363;DHT22;64265;51.664;7.626;2024-01-11T10:28:29;20.60;65.00
2363;DHT22;64265;51.664;7.626;2024-01-11T10:30:56;20.60;65.50
2363;DHT22;64265;51.664;7.626;2024-01-11T10:33:23;20.60;65.30
2363;DHT22;64265;51.664;7.626;2024-01-11T10:35:50;20.60;66.70
2363;DHT22;64265;51.664;7.626;2024-01-11T10:38:17;20.60;65.90
2363;DHT22;64265;51.664;7.626;2024-01-11T10:40:46;20.60;66.30
2363;DHT22;64265;51.664;7.626;2024-01-11T10:43:15;20.60;66.90
2363;DHT22;64265;51.664;7.626;2024-01-11T10:45:48;20.60;66.80
2363;DHT22;64265;51.664;7.626;2024-01-11T10:48:21;20.60;68.50
2363;DHT22;64265;51.664;7.626;2024-01-11T10:50:52;20.60;67.70
2363;DHT22;64265;51.664;7.626;2024-01-11T10:53:28;20.60;67.30
2363;DHT22;64265;51.664;7.626;2024-01-11T10:55:57;20.60;67.80
2363;DHT22;64265;51.664;7.626;2024-01-11T10:58:26;20.60;68.10
2363;DHT22;64265;51.664;7.626;2024-01-11T11:00:54;20.60;69.60
2363;DHT22;64265;51.664;7.626;2024-01-11T11:03:23;20.60;69.70
2363;DHT22;64265;51.664;7.626;2024-01-11T11:05:53;20.60;68.70
2363;DHT22;64265;51.664;7.626;2024-01-11T11:08:22;20.70;69.50
2363;DHT22;64265;51.664;7.626;2024-01-11T11:10:53;20.70;69.40
2363;DHT22;64265;51.664;7.626;2024-01-11T11:13:22;20.70;69.60
2363;DHT22;64265;51.664;7.626;2024-01-11T11:15:49;20.70;69.00
2363;DHT22;64265;51.664;7.626;2024-01-11T11:18:16;20.70;69.50
2363;DHT22;64265;51.664;7.626;2024-01-11T11:20:44;20.70;69.50
2363;DHT22;64265;51.664;7.626;2024-01-11T11:23:12;20.70;70.70
2363;DHT22;64265;51.664;7.626;2024-01-11T11:25:40;20.70;69.90
2363;DHT22;64265;51.664;7.626;2024-01-11T11:28:08;20.70;71.70
2363;DHT22;64265;51.664;7.626;2024-01-11T11:30:40;20.70;72.30
2363;DHT22;64265;51.664;7.626;2024-01-11T11:33:10;20.70;72.70
2363;DHT22;64265;51.664;7.626;2024-01-11T11:35:38;20.70;71.70
2363;DHT22;64265;51.664;7.626;2024-01-11T11:38:05;20.80;71.50
2363;DHT22;64265;51.664;7.626;2024-01-11T11:40:32;20.80;73.40
2363;DHT22;64265;51.664;7.626;2024-01-11T11:43:04;20.70;73.90
2363;DHT22;64265;51.664;7.626;2024-01-11T11:45:31;20.70;72.30
2363;DHT22;64265;51.664;7.626;2024-01-11T11:47:59;20.80;73.30
2363;DHT22;64265;51.664;7.626;2024-01-11T11:50:26;20.80;72.80
2363;DHT22;64265;51.664;7.626;2024-01-11T11:52:56;20.80;72.90
2363;DHT22;64265;51.664;7.626;2024-01-11T11:55:24;20.80;75.10
2363;DHT22;64265;51.664;7.626;2024-01-11T11:57:54;20.80;76.70
2363;DHT22;64265;51.664;7.626;2024-01-11T12:00:20;20.80;75.60
2363;DHT22;64265;51.664;7.626;2024-01-11T12:02:52;20.80;75.70
2363;DHT22;64265;51.664;7.626;2024-01-11T12:05:23;20.80;74.40
2363;DHT22;64265;51.664;7.626;2024-01-11T12:07:49;20.80;73.60
2363;DHT22;64265;51.664;7.626;2024-01-11T12:10:17;20.80;74.20
2363;DHT22;64265;51.664;7.626;2024-01-11T12:12:44;20.80;73.10
2363;DHT22;64265;51.664;7.626;2024-01-11T12:15:11;20.80;73.30
2363;DHT22;64265;51.664;7.626;2024-01-11T12:17:38;20.70;72.80
2363;DHT22;64265;51.664;7.626;2024-01-11T12:20:08;20.70;72.70
2363;DHT22;64265;51.664;7.626;2024-01-11T12:22:36;20.70;72.30
2363;DHT22;64265;51.664;7.626;2024-01-11T12:25:04;20.70;72.00
2363;DHT22;64265;51.664;7.626;2024-01-11T12:27:32;20.70;71.90
2363;DHT22;64265;51.664;7.626;2024-01-11T12:30:01;20.70;72.20
2363;DHT22;64265;51.664;7.626;2024-01-11T12:32:28;20.70;71.60
2363;DHT22;64265;51.664;7.626;2024-01-11T12:34:56;20.70;72.00
2363;DHT22;64265;51.664;7.626;2024-01-11T12:37:23;20.70;71.80
2363;DHT22;64265;51.664;7.626;2024-01-11T12:39:57;20.70;72.00
2363;DHT22;64265;51.664;7.626;2024-01-11T12:42:23;20.70;72.00
2363;DHT22;64265;51.664;7.626;2024-01-11T12:44:50;20.70;72.00
2363;DHT22;64265;51.664;7.626;2024-01-11T12:47:17;20.90;72.00
2363;DHT22;64265;51.664;7.626;2024-01-11T12:49:44;20.70;71.70
2363;DHT22;64265;51.664;7.626;2024-01-11T12:52:16;20.70;71.60
2363;DHT22;64265;51.664;7.626;2024-01-11T12:54:43;20.80;71.70
2363;DHT22;64265;51.664;7.626;2024-01-11T12:57:12;20.80;71.60
2363;DHT22;64265;51.664;7.626;2024-01-11T12:59:43;20.80;71.40
2363;DHT22;64265;51.664;7.626;2024-01-11T13:02:11;20.80;71.50
2363;DHT22;64265;51.664;7.626;2024-01-11T13:04:39;20.90;71.60
2363;DHT22;64265;51.664;7.626;2024-01-11T13:07:06;20.90;71.60
2363;DHT22;64265;51.664;7.626;2024-01-11T13:09:33;20.80;63.80
2363;DHT22;64265;51.664;7.626;2024-01-11T13:12:00;20.30;56.00
2363;DHT22;64265;51.664;7.626;2024-01-11T13:14:28;19.90;53.80
2363;DHT22;64265;51.664;7.626;2024-01-11T13:16:55;19.50;50.00
2363;DHT22;64265;51.664;7.626;2024-01-11T13:19:21;19.50;55.20
2363;DHT22;64265;51.664;7.626;2024-01-11T13:21:48;19.80;56.90
2363;DHT22;64265;51.664;7.626;2024-01-11T13:24:15;19.90;57.50
2363;DHT22;64265;51.664;7.626;2024-01-11T13:26:42;20.10;57.90
2363;DHT22;64265;51.664;7.626;2024-01-11T13:29:08;20.10;58.40
2363;DHT22;64265;51.664;7.626;2024-01-11T13:31:38;20.20;58.50
2363;DHT22;64265;51.664;7.626;2024-01-11T13:34:05;20.20;58.70
2363;DHT22;64265;51.664;7.626;2024-01-11T13:36:31;20.30;59.30
2363;DHT22;64265;51.664;7.626;2024-01-11T13:38:58;20.40;59.60
2363;DHT22;64265;51.664;7.626;2024-01-11T13:41:25;20.40;60.00
2363;DHT22;64265;51.664;7.626;2024-01-11T13:43:52;20.40;60.20
2363;DHT22;64265;51.664;7.626;2024-01-11T13:46:19;20.40;60.30
2363;DHT22;64265;51.664;7.626;2024-01-11T13:48:48;20.50;61.00
2363;DHT22;64265;51.664;7.626;2024-01-11T13:51:14;20.50;61.00
2363;DHT22;64265;51.664;7.626;2024-01-11T13:53:41;20.50;61.30
2363;DHT22;64265;51.664;7.626;2024-01-11T13:56:08;20.50;61.40
2363;DHT22;64265;51.664;7.626;2024-01-11T13:58:35;20.50;61.80
2363;DHT22;64265;51.664;7.626;2024-01-11T14:01:02;20.60;62.00
2363;DHT22;64265;51.664;7.626;2024-01-11T14:03:29;20.60;61.90
2363;DHT22;64265;51.664;7.626;2024-01-11T14:05:57;20.60;62.00
2363;DHT22;64265;51.664;7.626;2024-01-11T14:08:25;20.60;62.10
2363;DHT22;64265;51.664;7.626;2024-01-11T14:10:52;20.70;62.50
2363;DHT22;64265;51.664;7.626;2024-01-11T14:13:20;21.00;62.90
2363;DHT22;64265;51.664;7.626;2024-01-11T14:15:46;20.70;62.60
2363;DHT22;64265;51.664;7.626;2024-01-11T14:18:16;20.70;62.70
2363;DHT22;64265;51.664;7.626;2024-01-11T14:20:43;20.70;62.70
2363;DHT22;64265;51.664;7.626;2024-01-11T14:23:11;20.70;62.70
2363;DHT22;64265;51.664;7.626;2024-01-11T14:25:38;20.70;62.60
2363;DHT22;64265;51.664;7.626;2024-01-11T14:28:05;20.70;62.70
2363;DHT22;64265;51.664;7.626;2024-01-11T14:30:31;20.70;62.80
2363;DHT22;64265;51.664;7.626;2024-01-11T14:32:58;20.80;62.80
2363;DHT22;64265;51.664;7.626;2024-01-11T14:35:25;20.80;63.00
2363;DHT22;64265;51.664;7.626;2024-01-11T14:37:52;20.80;62.80
2363;DHT22;64265;51.664;7.626;2024-01-11T14:40:20;20.80;62.90
2363;DHT22;64265;51.664;7.626;2024-01-11T14:42:48;20.80;62.90
2363;DHT22;64265;51.664;7.626;2024-01-11T14:45:15;20.80;63.00
2363;DHT22;64265;51.664;7.626;2024-01-11T14:47:42;20.80;62.90
2363;DHT22;64265;51.664;7.626;2024-01-11T14:50:09;20.80;63.10
2363;DHT22;64265;51.664;7.626;2024-01-11T14:52:36;20.80;63.00
2363;DHT22;64265;51.664;7.626;2024-01-11T14:55:04;20.80;63.10
2363;DHT22;64265;51.664;7.626;2024-01-11T14:57:32;20.80;63.20
2363;DHT22;64265;51.664;7.626;2024-01-11T14:59:59;20.80;63.10
2363;DHT22;64265;51.664;7.626;2024-01-11T15:02:26;20.80;63.10
2363;DHT22;64265;51.664;7.626;2024-01-11T15:04:53;20.80;63.20
2363;DHT22;64265;51.664;7.626;2024-01-11T15:07:20;20.80;63.30
2363;DHT22;64265;51.664;7.626;2024-01-11T15:09:46;20.80;63.30
2363;DHT22;64265;51.664;7.626;2024-01-11T15:12:15;20.80;63.20
2363;DHT22;64265;51.664;7.626;2024-01-11T15:14:43;20.80;63.30
2363;DHT22;64265;51.664;7.626;2024-01-11T15:17:11;20.80;63.50
2363;DHT22;64265;51.664;7.626;2024-01-11T15:19:38;20.90;63.80
2363;DHT22;64265;51.664;7.626;2024-01-11T15:22:04;20.80;63.70
2363;DHT22;64265;51.664;7.626;2024-01-11T15:24:34;20.90;63.90
2363;DHT22;64265;51.664;7.626;2024-01-11T15:27:00;20.90;64.00
2363;DHT22;64265;51.664;7.626;2024-01-11T15:29:27;20.90;64.10
2363;DHT22;64265;51.664;7.626;2024-01-11T15:31:58;20.90;64.10
2363;DHT22;64265;51.664;7.626;2024-01-11T15:34:25;20.90;64.20
2363;DHT22;64265;51.664;7.626;2024-01-11T15:36:52;20.90;64.20
2363;DHT22;64265;51.664;7.626;2024-01-11T15:39:19;21.00;64.40
2363;DHT22;64265;51.664;7.626;2024-01-11T15:41:45;20.90;64.30
2363;DHT22;64265;51.664;7.626;2024-01-11T15:44:13;20.90;64.40
2363;DHT22;64265;51.664;7.626;2024-01-11T15:46:40;21.00;64.50
2363;DHT22;64265;51.664;7.626;2024-01-11T15:49:08;21.00;64.60
2363;DHT22;64265;51.664;7.626;2024-01-11T15:51:35;21.00;64.60
2363;DHT22;64265;51.664;7.626;2024-01-11T15:54:02;21.00;64.60
2363;DHT22;64265;51.664;7.626;2024-01-11T15:56:28;21.00;64.60
2363;DHT22;64265;51.664;7.626;2024-01-11T15:58:55;21.00;64.60
2363;DHT22;64265;51.664;7.626;2024-01-11T16:01:22;21.10;64.90